(°C)
11°
12°
12°
12°
13°
13°
13°
(°C)
10°
K
K
K
K
KKD
KKD
KD
(km/saat)
11-17
13-19
15-21
16-22
16-22
16-23
16-23
(mm)
0
0
0
0
0
0
0
(%)
0
0
6
0
6
13
25

Güneşin açısı

/ 35.1°
sun-icon
UV 2
03:50
22:57
Azalan ay (253°)
04:33
08:40

Reykjavik (BIRK) için METAR

Zaman Koşullar Sıcaklık/
Çiy noktası
Rüzgar Görünürlük Hava Bulutlar Basınç Değiştir Ham
VFR 11°C / 6°C 340º variable 300º to 010º 3kt >10km - Clouds and Visibility OK 997 - BIRK 210900Z 34003KT 300V010 CAVOK 11/06 Q0997
VFR 10°C / 6°C variable 2kt >10km - Clouds and Visibility OK 997 - BIRK 210800Z VRB02KT CAVOK 10/06 Q0997
VFR 9°C / 6°C variable 2kt >10km - Clouds and Visibility OK 997 - BIRK 210700Z VRB02KT CAVOK 09/06 Q0997
VFR 8°C / 7°C variable 1kt >10km - Clouds and Visibility OK 996 - BIRK 210600Z VRB01KT CAVOK 08/07 Q0996
VFR 6°C / 5°C 300º 2kt >10km - Clouds and Visibility OK 996 - BIRK 210500Z 30002KT CAVOK 06/05 Q0996
VFR 7°C / 5°C 210º 3kt >10km - Clouds and Visibility OK 996 - BIRK 210400Z 21003KT CAVOK 07/05 Q0996
VFR 7°C / 6°C 180º 4kt >10km - Clouds and Visibility OK 996 - BIRK 210300Z 18004KT CAVOK 07/06 Q0996
VFR 8°C / 6°C variable 2kt >10km - Clouds and Visibility OK 996 - BIRK 210200Z VRB02KT CAVOK 08/06 Q0996
VFR 9°C / 6°C variable 1kt >10km - Clouds and Visibility OK 995 - BIRK 210100Z VRB01KT CAVOK 09/06 Q0995
VFR 11°C / 6°C 350º 4kt >10km - Few Clouds 4500ft
Broken Clouds 5400ft
995 - BIRK 210000Z 35004KT 9999 FEW045 BKN054 11/06 Q0995
VFR 11°C / 6°C 350º 5kt >10km in the Vicinity Showers Vertical Visibility of 0ft.
Broken Clouds 5400ft
Broken Clouds 10000ft
995 - BIRK 202300Z 35005KT 9999 VCSH FEW044 BKN054 BKN100 11/06 Q0995
VFR 11°C / 6°C 350º 7kt >10km - Broken Clouds 4500ft
Broken Clouds 10000ft
995 - BIRK 202200Z 35007KT 9999 BKN045 BKN100 11/06 Q0995
VFR 13°C / 7°C variable 5kt >10km - Few Clouds 2700ft
Broken Clouds 3900ft
Broken Clouds 6000ft
995 - BIRK 202100Z 00005KT 9999 FEW027 BKN039 BKN060 13/07 Q0995
VFR 12°C / 6°C 350º 6kt >10km - Few Clouds 3300ft
Broken Clouds 4300ft
Broken Clouds 5400ft
994 - BIRK 202000Z 35006KT 9999 FEW033 BKN043 BKN054 12/06 Q0994
VFR 12°C / 6°C 50º variable 010º to 090º 6kt >10km in the Vicinity Showers Vertical Visibility of 0ft.
Broken Clouds 4500ft
994 - BIRK 201900Z 05006KT 010V090 9999 VCSH FEW030 BKN045 12/06 Q0994
VFR 12°C / 6°C 360º 10kt >10km Light Showers Rain 3.00mm precipitation Vertical Visibility of 0ft.
Broken Clouds 6000ft
994 - BIRK 201800Z 36010KT 9999 -SHRA SCT031 BKN060 12/06 Q0994
VFR 13°C / 6°C 90º variable 040º to 110º 7kt >10km - Scattered Clouds 2900ft
Broken Clouds 8000ft
994 - BIRK 201700Z 09007KT 040V110 9999 SCT029 BKN080 13/06 Q0994
VFR 12°C / 7°C 80º 9kt >10km Light Showers Rain 3.00mm precipitation Vertical Visibility of 0ft.
Broken Clouds 4500ft
994 - BIRK 201600Z 08009KT 9999 -SHRA FEW028 BKN045 12/07 Q0994
VFR 13°C / 6°C 90º variable 060º to 120º 10kt >10km in the Vicinity Showers Vertical Visibility of 0ft.
Broken Clouds 8000ft
994 - BIRK 201500Z 09010KT 060V120 9999 VCSH SCT029 BKN080 13/06 Q0994
VFR 13°C / 5°C 90º 13kt >10km - Few Clouds 3000ft
Scattered Clouds 8000ft
993 - BIRK 201400Z 09013KT 9999 FEW030 SCT080 13/05 Q0993
VFR 13°C / 5°C 70º variable 040º to 100º 9kt >10km - Few Clouds 3000ft
Scattered Clouds 6000ft
993 - BIRK 201300Z 07009KT 040V100 9999 FEW030 SCT060 13/05 Q0993
VFR 13°C / 5°C 80º 9kt >10km - Few Clouds 3300ft
Scattered Clouds 4900ft
Broken Clouds 8000ft
993 - BIRK 201200Z 08009KT 9999 FEW033 SCT049 BKN080 13/05 Q0993
VFR 13°C / 6°C 70º 12kt >10km - Scattered Clouds 2800ft
Broken Clouds 8900ft
993 - BIRK 201100Z 07012KT 9999 SCT028 BKN089 13/06 Q0993
VFR 13°C / 5°C 50º variable 020º to 100º 9kt >10km - Few Clouds 2600ft
Broken Clouds 8200ft
993 - BIRK 201000Z 05009KT 020V100 9999 FEW026 BKN082 13/05 Q0993

VFR

11°C / 6°C

[Daha fazla]
Rüzgar 340º variable 300º to 010º 3kt
Görünürlük >10km
Hava -
Bulutlar Clouds and Visibility OK
Basınç 997
Değiştir -
Ham BIRK 210900Z 34003KT 300V010 CAVOK 11/06 Q0997

VFR

10°C / 6°C

[Daha fazla]
Rüzgar variable 2kt
Görünürlük >10km
Hava -
Bulutlar Clouds and Visibility OK
Basınç 997
Değiştir -
Ham BIRK 210800Z VRB02KT CAVOK 10/06 Q0997

VFR

9°C / 6°C

[Daha fazla]
Rüzgar variable 2kt
Görünürlük >10km
Hava -
Bulutlar Clouds and Visibility OK
Basınç 997
Değiştir -
Ham BIRK 210700Z VRB02KT CAVOK 09/06 Q0997

VFR

8°C / 7°C

[Daha fazla]
Rüzgar variable 1kt
Görünürlük >10km
Hava -
Bulutlar Clouds and Visibility OK
Basınç 996
Değiştir -
Ham BIRK 210600Z VRB01KT CAVOK 08/07 Q0996

VFR

6°C / 5°C

[Daha fazla]
Rüzgar 300º 2kt
Görünürlük >10km
Hava -
Bulutlar Clouds and Visibility OK
Basınç 996
Değiştir -
Ham BIRK 210500Z 30002KT CAVOK 06/05 Q0996

VFR

7°C / 5°C

[Daha fazla]
Rüzgar 210º 3kt
Görünürlük >10km
Hava -
Bulutlar Clouds and Visibility OK
Basınç 996
Değiştir -
Ham BIRK 210400Z 21003KT CAVOK 07/05 Q0996

VFR

7°C / 6°C

[Daha fazla]
Rüzgar 180º 4kt
Görünürlük >10km
Hava -
Bulutlar Clouds and Visibility OK
Basınç 996
Değiştir -
Ham BIRK 210300Z 18004KT CAVOK 07/06 Q0996

VFR

8°C / 6°C

[Daha fazla]
Rüzgar variable 2kt
Görünürlük >10km
Hava -
Bulutlar Clouds and Visibility OK
Basınç 996
Değiştir -
Ham BIRK 210200Z VRB02KT CAVOK 08/06 Q0996

VFR

9°C / 6°C

[Daha fazla]
Rüzgar variable 1kt
Görünürlük >10km
Hava -
Bulutlar Clouds and Visibility OK
Basınç 995
Değiştir -
Ham BIRK 210100Z VRB01KT CAVOK 09/06 Q0995

VFR

11°C / 6°C

[Daha fazla]
Rüzgar 350º 4kt
Görünürlük >10km
Hava -
Bulutlar Few Clouds 4500ft
Broken Clouds 5400ft
Basınç 995
Değiştir -
Ham BIRK 210000Z 35004KT 9999 FEW045 BKN054 11/06 Q0995

VFR

11°C / 6°C

[Daha fazla]
Rüzgar 350º 5kt
Görünürlük >10km
Hava in the Vicinity Showers
Bulutlar Vertical Visibility of 0ft.
Broken Clouds 5400ft
Broken Clouds 10000ft
Basınç 995
Değiştir -
Ham BIRK 202300Z 35005KT 9999 VCSH FEW044 BKN054 BKN100 11/06 Q0995

VFR

11°C / 6°C

[Daha fazla]
Rüzgar 350º 7kt
Görünürlük >10km
Hava -
Bulutlar Broken Clouds 4500ft
Broken Clouds 10000ft
Basınç 995
Değiştir -
Ham BIRK 202200Z 35007KT 9999 BKN045 BKN100 11/06 Q0995

VFR

13°C / 7°C

[Daha fazla]
Rüzgar variable 5kt
Görünürlük >10km
Hava -
Bulutlar Few Clouds 2700ft
Broken Clouds 3900ft
Broken Clouds 6000ft
Basınç 995
Değiştir -
Ham BIRK 202100Z 00005KT 9999 FEW027 BKN039 BKN060 13/07 Q0995

VFR

12°C / 6°C

[Daha fazla]
Rüzgar 350º 6kt
Görünürlük >10km
Hava -
Bulutlar Few Clouds 3300ft
Broken Clouds 4300ft
Broken Clouds 5400ft
Basınç 994
Değiştir -
Ham BIRK 202000Z 35006KT 9999 FEW033 BKN043 BKN054 12/06 Q0994

VFR

12°C / 6°C

[Daha fazla]
Rüzgar 50º variable 010º to 090º 6kt
Görünürlük >10km
Hava in the Vicinity Showers
Bulutlar Vertical Visibility of 0ft.
Broken Clouds 4500ft
Basınç 994
Değiştir -
Ham BIRK 201900Z 05006KT 010V090 9999 VCSH FEW030 BKN045 12/06 Q0994

VFR

12°C / 6°C

[Daha fazla]
Rüzgar 360º 10kt
Görünürlük >10km
Hava Light Showers Rain 3.00mm precipitation
Bulutlar Vertical Visibility of 0ft.
Broken Clouds 6000ft
Basınç 994
Değiştir -
Ham BIRK 201800Z 36010KT 9999 -SHRA SCT031 BKN060 12/06 Q0994

VFR

13°C / 6°C

[Daha fazla]
Rüzgar 90º variable 040º to 110º 7kt
Görünürlük >10km
Hava -
Bulutlar Scattered Clouds 2900ft
Broken Clouds 8000ft
Basınç 994
Değiştir -
Ham BIRK 201700Z 09007KT 040V110 9999 SCT029 BKN080 13/06 Q0994

VFR

12°C / 7°C

[Daha fazla]
Rüzgar 80º 9kt
Görünürlük >10km
Hava Light Showers Rain 3.00mm precipitation
Bulutlar Vertical Visibility of 0ft.
Broken Clouds 4500ft
Basınç 994
Değiştir -
Ham BIRK 201600Z 08009KT 9999 -SHRA FEW028 BKN045 12/07 Q0994

VFR

13°C / 6°C

[Daha fazla]
Rüzgar 90º variable 060º to 120º 10kt
Görünürlük >10km
Hava in the Vicinity Showers
Bulutlar Vertical Visibility of 0ft.
Broken Clouds 8000ft
Basınç 994
Değiştir -
Ham BIRK 201500Z 09010KT 060V120 9999 VCSH SCT029 BKN080 13/06 Q0994

VFR

13°C / 5°C

[Daha fazla]
Rüzgar 90º 13kt
Görünürlük >10km
Hava -
Bulutlar Few Clouds 3000ft
Scattered Clouds 8000ft
Basınç 993
Değiştir -
Ham BIRK 201400Z 09013KT 9999 FEW030 SCT080 13/05 Q0993

VFR

13°C / 5°C

[Daha fazla]
Rüzgar 70º variable 040º to 100º 9kt
Görünürlük >10km
Hava -
Bulutlar Few Clouds 3000ft
Scattered Clouds 6000ft
Basınç 993
Değiştir -
Ham BIRK 201300Z 07009KT 040V100 9999 FEW030 SCT060 13/05 Q0993

VFR

13°C / 5°C

[Daha fazla]
Rüzgar 80º 9kt
Görünürlük >10km
Hava -
Bulutlar Few Clouds 3300ft
Scattered Clouds 4900ft
Broken Clouds 8000ft
Basınç 993
Değiştir -
Ham BIRK 201200Z 08009KT 9999 FEW033 SCT049 BKN080 13/05 Q0993

VFR

13°C / 6°C

[Daha fazla]
Rüzgar 70º 12kt
Görünürlük >10km
Hava -
Bulutlar Scattered Clouds 2800ft
Broken Clouds 8900ft
Basınç 993
Değiştir -
Ham BIRK 201100Z 07012KT 9999 SCT028 BKN089 13/06 Q0993

VFR

13°C / 5°C

[Daha fazla]
Rüzgar 50º variable 020º to 100º 9kt
Görünürlük >10km
Hava -
Bulutlar Few Clouds 2600ft
Broken Clouds 8200ft
Basınç 993
Değiştir -
Ham BIRK 201000Z 05009KT 020V100 9999 FEW026 BKN082 13/05 Q0993

Reykjavik (BIRK) için TAF

From till


Maximum Temperature 14ºC on . Minimum Temperature 6ºC on .
From till Wind 20º 8kt. Visibility 10km or more. Nil Significant Cloud.
Becoming from till Wind 20º 18kt. Visibility 10km or more. Nil Significant Cloud.
Temporarly from till Wind 20º 8kt.

Ham: TAF BIRK 210756Z 2109/2209 02008KT CAVOK TX14/2115Z TN06/2205Z BECMG 2115/2117 02018KT TEMPO 2200/2208 02008KT

Reykjavik için radar ve yağış nowcast

Çise
Hafif
Orta
Ağır
Çok ağır
Dolu

Konum işaretleyicisi Reykjavik üzerine yerleştirilir. Bu animasyon son saat içerisindeki yağış radarını ve 1h tahminini gösterir. Hafif yağmur veya kar yağışı radar için görünmez olabilir. Yağış şiddeti açık mavi ile koyu mor arasındaki renklerle kodlanmıştır.

Reykjavik için şu anki uydu ve yağmur görüntüleri, İzlanda

Konum işaretleyici Reykjavik üzerine yerleştirilir. [Daha fazla]

Gerçek zamanlı uydu görüntüsü gündüz süresince görülür ışığı gece süresince kızılötesi ışınım ile birleştirir. Gece kızılötesi ışınım sıcaklık farklarını algılayabildiğinden dolayı görüntü karanlık değildir. Ancak düşük bulutları ve sisi yer sıcaklığından ayırmak zordur ve bu nedenle gece boyunca neredeyse görünmez olabilirler. Avrupa için Meteosat uydu görüntüleri gerçek zamanlı olarak her 5 dakikada bir güncellenir. GOES-16/GOES-17 (Kuzey ve Güney Amerika) ve Himawari (Asya) görüntüleri her 10 dakikada bir güncellenir.

Yağış radar ve uydudan tahmin edilir. Uydulardan gece yapılan yağış tahminleri gündüz yapılan tahminlere göre daha az kusursuzdur. Turuncu çarpılar şimşeklerin saptandığı yerleri gösterir (Avrupa üzeri).

Copyright 2022 EUMETSAT / meteoblue. nowcast tarafından sağlanan şimşek verileri.

En başa git